Time;durP1;ratioP1;P1;durP2;ratioP2;P2;SDS_P1;SDS_P2;PMS_P1;PMS_P2;Temp;Humidity;BMP_temperature;BMP_pressure;BME280_temperature;BME280_humidity;BME280_pressure;Samples;Min_cycle;Max_cycle;Signal;HPM_P1;HPM_P2
2021/01/21 06:01:43;;;;;;;0.20;0.20;;;;;;;;;;5057948;28;20436;-52
2021/01/21 06:04:17;;;;;;;0.10;0.10;;;;;;;;;;5052782;28;20031;-51
2021/01/21 06:06:44;;;;;;;0.28;0.28;;;;;;;;;;5053040;28;20116;-53
2021/01/21 06:09:15;;;;;;;0.70;0.55;;;;;;;;;;5049962;28;20037;-53
2021/01/21 06:11:43;;;;;;;1.20;0.50;;;;;;;;;;5064594;28;20509;-52
2021/01/21 06:14:10;;;;;;;0.10;0.10;;;;;;;;;;5060543;28;20100;-50
2021/01/21 06:16:37;;;;;;;1.65;0.28;;;;;;;;;;5047277;28;20028;-51
2021/01/21 06:19:03;;;;;;;1.40;1.30;;;;;;;;;;5064642;28;20032;-49
2021/01/21 06:21:39;;;;;;;4.68;0.65;;;;;;;;;;5060452;28;20523;-53
2021/01/21 06:24:19;;;;;;;0.30;0.20;;;;;;;;;;5046719;28;20575;-52
2021/01/21 06:26:54;;;;;;;0.20;0.20;;;;;;;;;;5049719;28;20532;-51
2021/01/21 06:29:22;;;;;;;0.30;0.30;;;;;;;;;;5053253;28;20568;-53
2021/01/21 06:31:49;;;;;;;4.88;0.95;;;;;;;;;;5053321;28;20509;-51
2021/01/21 06:34:20;;;;;;;0.50;0.20;;;;;;;;;;5053349;28;20022;-53
2021/01/21 06:37:13;;;;;;;0.20;0.20;;;;;;;;;;5052781;28;20111;-52
2021/01/21 06:39:47;;;;;;;0.22;0.22;;;;;;;;;;5050025;28;20064;-51
2021/01/21 06:42:17;;;;;;;0.10;0.10;;;;;;;;;;5048984;28;20028;-52
2021/01/21 06:44:43;;;;;;;3.70;0.30;;;;;;;;;;5062697;28;20028;-52
2021/01/21 06:47:09;;;;;;;0.30;0.30;;;;;;;;;;5053256;28;20056;-52
2021/01/21 06:49:37;;;;;;;0.30;0.30;;;;;;;;;;5052590;28;20029;-52
2021/01/21 06:52:03;;;;;;;0.80;0.80;;;;;;;;;;5052907;28;20082;-53
2021/01/21 06:54:30;;;;;;;1.85;0.20;;;;;;;;;;5050196;28;20567;-51
2021/01/21 06:56:57;;;;;;;0.55;0.40;;;;;;;;;;5050004;28;20056;-53
2021/01/21 06:59:41;;;;;;;3.22;0.60;;;;;;;;;;5051693;28;20028;-53
2021/01/21 07:02:07;;;;;;;3.63;0.52;;;;;;;;;;5054849;28;20029;-53
2021/01/21 07:04:34;;;;;;;2.95;0.93;;;;;;;;;;5048368;28;20032;-54
2021/01/21 07:07:06;;;;;;;0.20;0.20;;;;;;;;;;5049153;28;20052;-53
2021/01/21 07:09:33;;;;;;;0.28;0.28;;;;;;;;;;5051258;28;20068;-53
2021/01/21 07:12:03;;;;;;;0.47;0.47;;;;;;;;;;5051352;28;20120;-51
2021/01/21 07:14:30;;;;;;;0.70;0.38;;;;;;;;;;5051881;28;20766;-53
2021/01/21 07:16:58;;;;;;;7.63;0.88;;;;;;;;;;5051258;28;20021;-52
2021/01/21 07:19:28;;;;;;;1.27;0.95;;;;;;;;;;5052071;28;20486;-51
2021/01/21 07:21:56;;;;;;;2.17;0.43;;;;;;;;;;5048386;28;20104;-55
2021/01/21 07:24:23;;;;;;;0.25;0.25;;;;;;;;;;5052462;28;20078;-52
2021/01/21 07:26:50;;;;;;;0.90;0.63;;;;;;;;;;5049591;28;20040;-56
2021/01/21 07:29:19;;;;;;;0.98;0.28;;;;;;;;;;5048756;28;20033;-52
2021/01/21 07:31:51;;;;;;;0.20;0.20;;;;;;;;;;5048245;28;20075;-53
2021/01/21 07:34:23;;;;;;;0.70;0.55;;;;;;;;;;5047780;28;20066;-54
2021/01/21 07:37:08;;;;;;;0.25;0.25;;;;;;;;;;5051191;28;20444;-50
2021/01/21 07:39:52;;;;;;;0.20;0.20;;;;;;;;;;5045804;28;20033;-51
2021/01/21 07:42:18;;;;;;;0.17;0.17;;;;;;;;;;5048089;28;20328;-53
2021/01/21 07:45:01;;;;;;;1.95;1.02;;;;;;;;;;5049377;28;20025;-52
2021/01/21 07:47:29;;;;;;;1.35;0.68;;;;;;;;;;5050878;28;20028;-52
2021/01/21 07:50:13;;;;;;;0.20;0.20;;;;;;;;;;5047338;28;20053;-52
2021/01/21 07:52:40;;;;;;;0.20;0.20;;;;;;;;;;5047323;28;20101;-53
2021/01/21 07:55:06;;;;;;;0.10;0.10;;;;;;;;;;5045397;28;20094;-52
2021/01/21 07:57:33;;;;;;;0.13;0.13;;;;;;;;;;5047926;28;20025;-50
2021/01/21 08:00:06;;;;;;;0.35;0.35;;;;;;;;;;5048863;28;20167;-51
2021/01/21 08:02:44;;;;;;;0.20;0.20;;;;;;;;;;5048303;28;20037;-52
2021/01/21 08:05:11;;;;;;;0.20;0.20;;;;;;;;;;5048020;28;20043;-52
2021/01/21 08:07:47;;;;;;;0.10;0.10;;;;;;;;;;5047679;28;20029;-52
2021/01/21 08:10:16;;;;;;;0.10;0.10;;;;;;;;;;5046125;28;20064;-51
2021/01/21 08:12:42;;;;;;;0.20;0.20;;;;;;;;;;5048270;28;20029;-55
2021/01/21 08:15:17;;;;;;;0.20;0.20;;;;;;;;;;5047676;28;20029;-55
2021/01/21 08:17:44;;;;;;;0.22;0.22;;;;;;;;;;5049380;28;20017;-53
2021/01/21 08:20:11;;;;;;;0.20;0.20;;;;;;;;;;5047266;28;20061;-51
2021/01/21 08:22:58;;;;;;;0.20;0.20;;;;;;;;;;5047662;28;20025;-52
2021/01/21 08:25:25;;;;;;;0.75;0.75;;;;;;;;;;5044845;28;20102;-52
2021/01/21 08:27:51;;;;;;;0.10;0.10;;;;;;;;;;5048202;28;20017;-53
2021/01/21 08:30:19;;;;;;;0.20;0.20;;;;;;;;;;5047094;28;20043;-53
2021/01/21 08:32:47;;;;;;;0.65;0.65;;;;;;;;;;5045781;28;20036;-57
2021/01/21 08:35:15;;;;;;;0.20;0.20;;;;;;;;;;5048239;28;20127;-51
2021/01/21 08:37:41;;;;;;;0.20;0.20;;;;;;;;;;5046047;28;20029;-50
2021/01/21 08:40:08;;;;;;;0.20;0.20;;;;;;;;;;5049073;28;20498;-53
2021/01/21 08:42:34;;;;;;;0.20;0.20;;;;;;;;;;5048491;28;20032;-53
2021/01/21 08:45:01;;;;;;;0.10;0.10;;;;;;;;;;5048468;28;20112;-52
2021/01/21 08:47:38;;;;;;;0.10;0.10;;;;;;;;;;5048018;28;20028;-52
2021/01/21 08:50:05;;;;;;;0.10;0.10;;;;;;;;;;5047250;28;20052;-50
2021/01/21 08:52:31;;;;;;;0.10;0.10;;;;;;;;;;5048259;28;20025;-53
2021/01/21 08:54:57;;;;;;;0.10;0.10;;;;;;;;;;5047967;28;20027;-52
2021/01/21 08:57:24;;;;;;;0.10;0.10;;;;;;;;;;5047858;28;20060;-50
2021/01/21 08:59:51;;;;;;;0.10;0.10;;;;;;;;;;5047975;28;20048;-51
2021/01/21 09:02:36;;;;;;;0.10;0.10;;;;;;;;;;5049582;28;20071;-51
2021/01/21 09:05:05;;;;;;;0.13;0.13;;;;;;;;;;5046712;28;20349;-51
2021/01/21 09:07:31;;;;;;;0.10;0.10;;;;;;;;;;5047567;28;20033;-53
2021/01/21 09:10:08;;;;;;;0.15;0.15;;;;;;;;;;5047499;28;20049;-50
2021/01/21 09:12:34;;;;;;;0.40;0.40;;;;;;;;;;5048110;28;20463;-54
2021/01/21 09:15:06;;;;;;;0.10;0.10;;;;;;;;;;5048329;28;20027;-54
2021/01/21 09:17:33;;;;;;;0.10;0.10;;;;;;;;;;5048797;28;20025;-53
2021/01/21 09:20:00;;;;;;;0.10;0.10;;;;;;;;;;5046462;28;20032;-52
2021/01/21 09:22:37;;;;;;;0.20;0.20;;;;;;;;;;5047677;28;20021;-50
2021/01/21 09:25:09;;;;;;;0.17;0.17;;;;;;;;;;5045457;28;20021;-52
2021/01/21 09:27:36;;;;;;;0.28;0.13;;;;;;;;;;5048128;28;20032;-51
2021/01/21 09:30:06;;;;;;;1.15;1.15;;;;;;;;;;5047746;28;20553;-51
2021/01/21 09:32:36;;;;;;;1.00;0.77;;;;;;;;;;5048580;28;20334;-52
2021/01/21 09:35:04;;;;;;;0.10;0.10;;;;;;;;;;5046115;28;20040;-50
2021/01/21 09:37:33;;;;;;;0.10;0.10;;;;;;;;;;5043686;28;20017;-51
2021/01/21 09:39:59;;;;;;;0.30;0.30;;;;;;;;;;5044823;28;20021;-52
2021/01/21 09:42:25;;;;;;;0.17;0.17;;;;;;;;;;5047330;28;20036;-50
2021/01/21 09:44:51;;;;;;;0.43;0.43;;;;;;;;;;5047572;28;20035;-54
2021/01/21 09:47:18;;;;;;;0.20;0.20;;;;;;;;;;5048464;28;20029;-50
2021/01/21 09:49:44;;;;;;;0.10;0.10;;;;;;;;;;5047625;28;20409;-51
2021/01/21 09:52:11;;;;;;;0.20;0.20;;;;;;;;;;5047476;28;20017;-54
2021/01/21 09:54:38;;;;;;;0.20;0.20;;;;;;;;;;5048162;28;20506;-51
2021/01/21 09:57:04;;;;;;;0.10;0.10;;;;;;;;;;5047519;28;20021;-50
2021/01/21 09:59:30;;;;;;;0.10;0.10;;;;;;;;;;5048752;28;20032;-50
2021/01/21 10:01:57;;;;;;;0.22;0.22;;;;;;;;;;5046922;28;20029;-50
2021/01/21 10:04:23;;;;;;;0.10;0.10;;;;;;;;;;5047426;28;20445;-52
2021/01/21 10:06:49;;;;;;;0.30;0.30;;;;;;;;;;5046509;28;20017;-52
2021/01/21 10:09:15;;;;;;;0.15;0.15;;;;;;;;;;5047059;28;20394;-51
2021/01/21 10:11:41;;;;;;;1.95;0.50;;;;;;;;;;5039870;28;20029;-51
2021/01/21 10:14:07;;;;;;;2.63;1.45;;;;;;;;;;5046834;28;20050;-51
2021/01/21 10:16:33;;;;;;;0.15;0.15;;;;;;;;;;5046411;28;20029;-50
2021/01/21 10:19:00;;;;;;;0.10;0.10;;;;;;;;;;5048259;28;20017;-51
2021/01/21 10:21:26;;;;;;;0.40;0.40;;;;;;;;;;5046316;28;20036;-51
2021/01/21 10:23:52;;;;;;;0.20;0.20;;;;;;;;;;5044567;28;20033;-53
2021/01/21 10:26:19;;;;;;;0.10;0.10;;;;;;;;;;5047203;28;20044;-52
2021/01/21 10:28:45;;;;;;;0.90;0.25;;;;;;;;;;5039595;28;20029;-51
2021/01/21 10:31:11;;;;;;;0.10;0.10;;;;;;;;;;5047302;28;20036;-53
2021/01/21 10:33:38;;;;;;;0.20;0.20;;;;;;;;;;5046836;28;20044;-53
2021/01/21 10:36:04;;;;;;;0.10;0.10;;;;;;;;;;5046278;28;20032;-54
2021/01/21 10:38:30;;;;;;;0.10;0.10;;;;;;;;;;5051115;28;20096;-52
2021/01/21 10:40:57;;;;;;;0.20;0.20;;;;;;;;;;5049790;28;20025;-50
2021/01/21 10:43:23;;;;;;;0.10;0.10;;;;;;;;;;5050622;28;20071;-52
2021/01/21 10:45:49;;;;;;;0.52;0.30;;;;;;;;;;5051071;28;20120;-52
2021/01/21 10:48:15;;;;;;;0.10;0.10;;;;;;;;;;5050603;28;20510;-51
2021/01/21 10:50:42;;;;;;;0.10;0.10;;;;;;;;;;5052023;28;20048;-51
2021/01/21 10:53:08;;;;;;;0.10;0.10;;;;;;;;;;5048725;28;20025;-51
2021/01/21 10:55:34;;;;;;;0.17;0.17;;;;;;;;;;5049884;28;20032;-52
2021/01/21 10:58:00;;;;;;;0.10;0.10;;;;;;;;;;5045775;28;20538;-55
2021/01/21 11:00:26;;;;;;;0.10;0.10;;;;;;;;;;5048051;28;20079;-51
2021/01/21 11:02:53;;;;;;;0.45;0.20;;;;;;;;;;5035892;28;20487;-52
2021/01/21 11:05:19;;;;;;;2.97;2.50;;;;;;;;;;5049783;28;20036;-51
2021/01/21 11:07:45;;;;;;;0.10;0.10;;;;;;;;;;5049969;28;20017;-52
2021/01/21 11:10:11;;;;;;;1.45;0.20;;;;;;;;;;5048264;28;20048;-51
2021/01/21 11:12:37;;;;;;;0.17;0.17;;;;;;;;;;5049413;28;20048;-55
2021/01/21 11:15:04;;;;;;;0.20;0.20;;;;;;;;;;5034649;28;20511;-51
2021/01/21 11:17:30;;;;;;;0.75;0.75;;;;;;;;;;5042801;28;20108;-51
2021/01/21 11:19:56;;;;;;;0.10;0.10;;;;;;;;;;5047570;28;20083;-51
2021/01/21 11:22:23;;;;;;;4.10;3.10;;;;;;;;;;5044063;28;20030;-53
2021/01/21 11:24:49;;;;;;;0.10;0.10;;;;;;;;;;5036763;28;20123;-50
2021/01/21 11:27:15;;;;;;;0.10;0.10;;;;;;;;;;5032970;28;20033;-51
2021/01/21 11:29:41;;;;;;;0.20;0.20;;;;;;;;;;5037036;28;20080;-51
2021/01/21 11:32:08;;;;;;;0.10;0.10;;;;;;;;;;5043306;28;20507;-50
2021/01/21 11:34:34;;;;;;;0.25;0.25;;;;;;;;;;5042211;28;20036;-50
2021/01/21 11:37:00;;;;;;;0.10;0.10;;;;;;;;;;5037074;28;20390;-51
2021/01/21 11:39:26;;;;;;;0.10;0.10;;;;;;;;;;5033459;28;20437;-51
2021/01/21 11:41:52;;;;;;;0.40;0.40;;;;;;;;;;5034938;28;20040;-51
2021/01/21 11:44:18;;;;;;;0.10;0.10;;;;;;;;;;5037471;28;20040;-53
2021/01/21 11:46:44;;;;;;;0.10;0.10;;;;;;;;;;5035264;28;20040;-51
2021/01/21 11:49:10;;;;;;;0.10;0.10;;;;;;;;;;5036558;28;20024;-51
2021/01/21 11:51:36;;;;;;;0.13;0.13;;;;;;;;;;5035651;28;20457;-51
2021/01/21 11:54:03;;;;;;;2.40;0.30;;;;;;;;;;5033736;28;20034;-50
2021/01/21 11:56:29;;;;;;;0.10;0.10;;;;;;;;;;5036377;28;20033;-50
2021/01/21 11:58:55;;;;;;;0.10;0.10;;;;;;;;;;5046479;28;20029;-50
2021/01/21 12:01:22;;;;;;;0.10;0.10;;;;;;;;;;5043058;28;20041;-53
2021/01/21 12:03:48;;;;;;;0.10;0.10;;;;;;;;;;5036496;28;20445;-54
2021/01/21 12:06:14;;;;;;;0.10;0.10;;;;;;;;;;5044943;28;20036;-51
2021/01/21 12:08:41;;;;;;;0.10;0.10;;;;;;;;;;5044262;28;20378;-51
2021/01/21 12:11:07;;;;;;;0.10;0.10;;;;;;;;;;5046461;28;20414;-51
2021/01/21 12:13:33;;;;;;;0.10;0.10;;;;;;;;;;5047413;28;20048;-54
2021/01/21 12:15:59;;;;;;;0.10;0.10;;;;;;;;;;5043336;28;20037;-51
2021/01/21 12:18:26;;;;;;;0.10;0.10;;;;;;;;;;5048922;28;20044;-52
2021/01/21 12:20:53;;;;;;;0.25;0.25;;;;;;;;;;5048004;28;20055;-50
2021/01/21 12:23:19;;;;;;;0.10;0.10;;;;;;;;;;5047461;28;20025;-50
2021/01/21 12:25:45;;;;;;;0.10;0.10;;;;;;;;;;5047184;28;20031;-51
2021/01/21 12:28:12;;;;;;;0.10;0.10;;;;;;;;;;5046726;28;20033;-51
2021/01/21 12:30:38;;;;;;;0.10;0.10;;;;;;;;;;5048549;28;20042;-52
2021/01/21 12:33:04;;;;;;;0.10;0.10;;;;;;;;;;5037262;28;20365;-50
2021/01/21 12:35:30;;;;;;;0.10;0.10;;;;;;;;;;5048452;28;20029;-58
2021/01/21 12:37:56;;;;;;;1.73;0.90;;;;;;;;;;5044111;28;20076;-58
2021/01/21 12:40:22;;;;;;;2.30;0.88;;;;;;;;;;5042430;28;20079;-58
2021/01/21 12:42:48;;;;;;;1.83;0.80;;;;;;;;;;5047663;28;20021;-56
2021/01/21 12:45:14;;;;;;;1.65;0.73;;;;;;;;;;5048150;28;20147;-59
2021/01/21 12:47:40;;;;;;;0.35;0.35;;;;;;;;;;5049545;28;20017;-59
2021/01/21 12:50:07;;;;;;;1.17;1.17;;;;;;;;;;5043671;28;20090;-57
2021/01/21 12:52:33;;;;;;;6.75;0.82;;;;;;;;;;5046284;28;20029;-58
2021/01/21 12:54:59;;;;;;;0.35;0.25;;;;;;;;;;5047239;28;20025;-57
2021/01/21 12:57:25;;;;;;;0.30;0.30;;;;;;;;;;5046559;28;20425;-59
2021/01/21 12:59:56;;;;;;;0.10;0.10;;;;;;;;;;5045836;28;20048;-60
2021/01/21 13:02:22;;;;;;;0.20;0.20;;;;;;;;;;5047412;28;20028;-58
2021/01/21 13:04:49;;;;;;;0.10;0.10;;;;;;;;;;5047844;28;20120;-58
2021/01/21 13:07:15;;;;;;;0.10;0.10;;;;;;;;;;5046605;28;20505;-56
2021/01/21 13:09:41;;;;;;;0.30;0.13;;;;;;;;;;5048135;28;20082;-60
2021/01/21 13:12:07;;;;;;;0.20;0.20;;;;;;;;;;5047667;28;20041;-58
2021/01/21 13:14:33;;;;;;;0.15;0.15;;;;;;;;;;5048152;28;20108;-59
2021/01/21 13:16:59;;;;;;;0.30;0.30;;;;;;;;;;5046976;28;20025;-59
2021/01/21 13:19:25;;;;;;;0.30;0.30;;;;;;;;;;5045770;28;20072;-53
2021/01/21 13:21:51;;;;;;;0.15;0.15;;;;;;;;;;5045256;28;20029;-51
2021/01/21 13:24:18;;;;;;;0.65;0.50;;;;;;;;;;5047667;28;20075;-51
2021/01/21 13:26:44;;;;;;;0.30;0.30;;;;;;;;;;5046356;28;20575;-52
2021/01/21 13:29:10;;;;;;;0.10;0.10;;;;;;;;;;5047242;28;20390;-54
2021/01/21 13:31:36;;;;;;;2.33;0.88;;;;;;;;;;5047260;28;20055;-51
2021/01/21 13:34:02;;;;;;;0.60;0.55;;;;;;;;;;5047771;28;20063;-52
2021/01/21 13:36:29;;;;;;;0.60;0.52;;;;;;;;;;5047315;28;20037;-50
2021/01/21 13:38:55;;;;;;;0.10;0.10;;;;;;;;;;5046519;28;20631;-51
2021/01/21 13:41:23;;;;;;;6.53;1.15;;;;;;;;;;5045354;28;20040;-55
2021/01/21 13:43:50;;;;;;;0.10;0.10;;;;;;;;;;5047202;28;20025;-50
2021/01/21 13:46:16;;;;;;;0.20;0.20;;;;;;;;;;5045289;28;20036;-55
2021/01/21 13:48:42;;;;;;;0.10;0.10;;;;;;;;;;5047007;28;20036;-52
2021/01/21 13:51:11;;;;;;;0.52;0.52;;;;;;;;;;5046705;28;20046;-52
2021/01/21 13:53:37;;;;;;;0.10;0.10;;;;;;;;;;5048200;28;20071;-53
2021/01/21 13:56:05;;;;;;;0.10;0.10;;;;;;;;;;5046850;28;20123;-53
2021/01/21 13:58:31;;;;;;;1.15;1.05;;;;;;;;;;5046399;28;20036;-52
2021/01/21 14:00:57;;;;;;;0.35;0.35;;;;;;;;;;5047055;28;20406;-50
2021/01/21 14:03:23;;;;;;;2.47;0.85;;;;;;;;;;5047257;28;20517;-53
2021/01/21 14:05:49;;;;;;;0.10;0.10;;;;;;;;;;5047664;28;20032;-52
2021/01/21 14:08:16;;;;;;;4.03;1.05;;;;;;;;;;5046643;28;20025;-50
2021/01/21 14:10:45;;;;;;;0.10;0.10;;;;;;;;;;5046081;28;20060;-52
2021/01/21 14:13:12;;;;;;;0.85;0.60;;;;;;;;;;5052104;28;20028;-54
2021/01/21 14:15:38;;;;;;;0.10;0.10;;;;;;;;;;5051868;28;20517;-53
2021/01/21 14:18:04;;;;;;;0.32;0.32;;;;;;;;;;5051137;28;20517;-51
2021/01/21 14:20:30;;;;;;;0.45;0.45;;;;;;;;;;5051426;28;20040;-53
2021/01/21 14:22:56;;;;;;;0.32;0.32;;;;;;;;;;5047286;28;20053;-52
2021/01/21 14:25:22;;;;;;;0.65;0.65;;;;;;;;;;5051177;28;20205;-51
2021/01/21 14:27:48;;;;;;;0.10;0.10;;;;;;;;;;5048324;28;20021;-51
2021/01/21 14:30:14;;;;;;;0.10;0.10;;;;;;;;;;5038452;28;20049;-51
2021/01/21 14:32:44;;;;;;;0.10;0.10;;;;;;;;;;5047338;28;20477;-53
2021/01/21 14:35:11;;;;;;;1.45;0.88;;;;;;;;;;5048361;28;20036;-52
2021/01/21 14:37:37;;;;;;;0.50;0.50;;;;;;;;;;5042940;28;20037;-54
2021/01/21 14:40:05;;;;;;;3.65;0.35;;;;;;;;;;5038004;28;20516;-54
2021/01/21 14:42:31;;;;;;;0.30;0.30;;;;;;;;;;5036396;28;20454;-51
2021/01/21 14:44:57;;;;;;;0.20;0.20;;;;;;;;;;5036159;28;20040;-51
2021/01/21 14:47:24;;;;;;;1.55;0.17;;;;;;;;;;5051130;28;20113;-50
2021/01/21 14:49:50;;;;;;;0.10;0.10;;;;;;;;;;5047349;28;20029;-53
2021/01/21 14:52:16;;;;;;;0.10;0.10;;;;;;;;;;5051092;28;20025;-52
2021/01/21 14:54:42;;;;;;;0.10;0.10;;;;;;;;;;5049981;28;20145;-53
2021/01/21 14:57:08;;;;;;;0.10;0.10;;;;;;;;;;5049920;28;20438;-51
2021/01/21 14:59:36;;;;;;;0.10;0.10;;;;;;;;;;5051075;28;20031;-53
2021/01/21 15:02:02;;;;;;;11.73;0.45;;;;;;;;;;5050325;28;20032;-52
2021/01/21 15:04:28;;;;;;;0.10;0.10;;;;;;;;;;5049486;28;20033;-52
2021/01/21 15:06:54;;;;;;;0.65;0.47;;;;;;;;;;5050571;28;20140;-55
2021/01/21 15:09:20;;;;;;;0.30;0.20;;;;;;;;;;5049633;28;20025;-51
2021/01/21 15:11:46;;;;;;;7.55;0.70;;;;;;;;;;5053123;28;20033;-51
2021/01/21 15:14:12;;;;;;;0.35;0.35;;;;;;;;;;5050180;28;20112;-52
2021/01/21 15:16:39;;;;;;;0.10;0.10;;;;;;;;;;5049178;28;20020;-55
2021/01/21 15:19:05;;;;;;;0.20;0.20;;;;;;;;;;5047569;28;20033;-52
2021/01/21 15:21:31;;;;;;;3.60;0.30;;;;;;;;;;5038537;28;20159;-52
2021/01/21 15:23:57;;;;;;;0.50;0.50;;;;;;;;;;5047611;28;20452;-54
2021/01/21 15:26:24;;;;;;;0.20;0.20;;;;;;;;;;5037811;28;20053;-52
2021/01/21 15:28:50;;;;;;;0.10;0.10;;;;;;;;;;5037739;28;20032;-52
2021/01/21 15:31:17;;;;;;;0.55;0.30;;;;;;;;;;5037306;28;20041;-54
2021/01/21 15:33:43;;;;;;;6.07;0.43;;;;;;;;;;5045461;28;20083;-52
2021/01/21 15:36:09;;;;;;;0.22;0.22;;;;;;;;;;5050182;28;20055;-52
2021/01/21 15:38:35;;;;;;;0.10;0.10;;;;;;;;;;5037525;28;20052;-53
2021/01/21 15:41:01;;;;;;;1.25;1.15;;;;;;;;;;5038610;28;20187;-52
2021/01/21 15:43:28;;;;;;;0.30;0.30;;;;;;;;;;5042092;28;20024;-51
2021/01/21 15:45:55;;;;;;;0.20;0.20;;;;;;;;;;5049169;28;20021;-54
2021/01/21 15:48:22;;;;;;;0.40;0.32;;;;;;;;;;5049757;28;20040;-50
2021/01/21 15:50:49;;;;;;;0.15;0.15;;;;;;;;;;5045342;28;20387;-54
2021/01/21 15:53:15;;;;;;;0.13;0.13;;;;;;;;;;5049848;28;20079;-54
2021/01/21 15:55:41;;;;;;;0.10;0.10;;;;;;;;;;5050129;28;20150;-51
2021/01/21 15:58:07;;;;;;;0.10;0.10;;;;;;;;;;5048242;28;20056;-53
2021/01/21 16:00:33;;;;;;;0.68;0.25;;;;;;;;;;5048230;28;20052;-54
2021/01/21 16:02:59;;;;;;;0.70;0.15;;;;;;;;;;5048225;28;20049;-50
2021/01/21 16:05:26;;;;;;;0.20;0.20;;;;;;;;;;5050774;28;20159;-53
2021/01/21 16:07:52;;;;;;;0.10;0.10;;;;;;;;;;5045200;28;20083;-55
2021/01/21 16:10:18;;;;;;;0.10;0.10;;;;;;;;;;5045326;28;20414;-53
2021/01/21 16:12:44;;;;;;;0.10;0.10;;;;;;;;;;5045879;28;20025;-55
2021/01/21 16:15:11;;;;;;;0.00;0.00;;;;;;;;;;5046325;28;20037;-54
2021/01/21 16:17:37;;;;;;;0.98;0.63;;;;;;;;;;5049523;28;20021;-52
2021/01/21 16:20:03;;;;;;;1.00;0.35;;;;;;;;;;5046054;28;20052;-57
2021/01/21 16:22:30;;;;;;;0.10;0.10;;;;;;;;;;5048040;28;20025;-54
2021/01/21 16:24:56;;;;;;;8.57;1.20;;;;;;;;;;5046902;28;20491;-54
2021/01/21 16:27:22;;;;;;;0.63;0.63;;;;;;;;;;5046340;28;20044;-55
2021/01/21 16:29:51;;;;;;;0.10;0.10;;;;;;;;;;5046605;28;20071;-55
2021/01/21 16:32:17;;;;;;;0.10;0.10;;;;;;;;;;5047269;28;20032;-54
2021/01/21 16:34:44;;;;;;;0.10;0.10;;;;;;;;;;5043771;28;20541;-52
2021/01/21 16:37:10;;;;;;;1.45;1.10;;;;;;;;;;5043147;28;20124;-56
2021/01/21 16:39:37;;;;;;;2.45;1.83;;;;;;;;;;5043339;28;20021;-52
2021/01/21 16:42:04;;;;;;;1.73;0.82;;;;;;;;;;5048281;28;20021;-51
2021/01/21 16:44:30;;;;;;;0.25;0.10;;;;;;;;;;5047202;28;20021;-52
2021/01/21 16:46:56;;;;;;;0.20;0.20;;;;;;;;;;5046676;28;20028;-50
2021/01/21 16:49:22;;;;;;;0.15;0.15;;;;;;;;;;5046932;28;20040;-53
2021/01/21 16:51:48;;;;;;;0.95;0.95;;;;;;;;;;5045585;28;20086;-51
2021/01/21 16:54:14;;;;;;;0.10;0.10;;;;;;;;;;5047735;28;22605;-54
2021/01/21 16:56:40;;;;;;;0.10;0.10;;;;;;;;;;5049008;28;20035;-56
2021/01/21 16:59:06;;;;;;;1.10;0.38;;;;;;;;;;5045419;28;20036;-56
2021/01/21 17:01:32;;;;;;;0.30;0.30;;;;;;;;;;5043798;28;20175;-58
2021/01/21 17:03:59;;;;;;;0.10;0.10;;;;;;;;;;5046151;28;20144;-55
2021/01/21 17:06:25;;;;;;;0.25;0.20;;;;;;;;;;5042990;28;20390;-54
2021/01/21 17:08:55;;;;;;;0.10;0.10;;;;;;;;;;5049943;28;20052;-52
2021/01/21 17:11:22;;;;;;;0.10;0.10;;;;;;;;;;5047270;28;20040;-55
2021/01/21 17:13:48;;;;;;;0.05;0.05;;;;;;;;;;5044602;28;20151;-54
2021/01/21 17:16:14;;;;;;;1.33;1.00;;;;;;;;;;5047396;28;20033;-54
2021/01/21 17:18:40;;;;;;;0.17;0.17;;;;;;;;;;5050080;28;20032;-55
2021/01/21 17:21:06;;;;;;;0.38;0.30;;;;;;;;;;5050032;28;20082;-52
2021/01/21 17:23:32;;;;;;;0.10;0.10;;;;;;;;;;5049330;28;20033;-53
2021/01/21 17:25:59;;;;;;;0.45;0.45;;;;;;;;;;5046749;28;20468;-53
2021/01/21 17:28:25;;;;;;;0.10;0.10;;;;;;;;;;5047792;28;20659;-54
2021/01/21 17:30:51;;;;;;;1.15;1.05;;;;;;;;;;5049761;28;20135;-56
2021/01/21 17:33:17;;;;;;;0.10;0.10;;;;;;;;;;5050089;28;20025;-55
2021/01/21 17:35:43;;;;;;;0.10;0.10;;;;;;;;;;5044802;28;20035;-56
2021/01/21 17:38:10;;;;;;;1.48;0.75;;;;;;;;;;5044012;28;20028;-56
2021/01/21 17:40:36;;;;;;;0.95;0.88;;;;;;;;;;5044028;28;20033;-53
2021/01/21 17:43:02;;;;;;;0.93;0.93;;;;;;;;;;5048179;28;20025;-52
2021/01/21 17:45:28;;;;;;;4.78;4.47;;;;;;;;;;5045809;28;20024;-53
2021/01/21 17:47:54;;;;;;;0.13;0.13;;;;;;;;;;5049030;28;20029;-56
2021/01/21 17:50:20;;;;;;;0.40;0.40;;;;;;;;;;5045867;28;20091;-55
2021/01/21 17:52:46;;;;;;;0.10;0.10;;;;;;;;;;5047916;28;20486;-54
2021/01/21 17:55:13;;;;;;;0.10;0.10;;;;;;;;;;5046934;28;20455;-53
2021/01/21 17:57:39;;;;;;;0.50;0.50;;;;;;;;;;5046841;28;20414;-54
2021/01/21 18:00:10;;;;;;;0.10;0.10;;;;;;;;;;5045588;28;20422;-56
2021/01/21 18:02:40;;;;;;;0.10;0.10;;;;;;;;;;5047354;28;20052;-56
2021/01/21 18:05:06;;;;;;;0.10;0.10;;;;;;;;;;5045465;28;20043;-56
2021/01/21 18:07:32;;;;;;;0.20;0.20;;;;;;;;;;5047492;28;20043;-52
2021/01/21 18:09:58;;;;;;;0.88;0.80;;;;;;;;;;5048461;28;20041;-52
2021/01/21 18:12:24;;;;;;;0.20;0.20;;;;;;;;;;5048753;28;20028;-52
2021/01/21 18:14:51;;;;;;;1.52;1.52;;;;;;;;;;5050796;28;20021;-52
2021/01/21 18:17:17;;;;;;;0.10;0.10;;;;;;;;;;5050419;28;20109;-52
2021/01/21 18:19:44;;;;;;;0.10;0.10;;;;;;;;;;5049486;28;20021;-53
2021/01/21 18:22:10;;;;;;;2.28;2.17;;;;;;;;;;5047687;28;20542;-56
2021/01/21 18:24:36;;;;;;;0.10;0.10;;;;;;;;;;5049916;28;20044;-53
2021/01/21 18:27:02;;;;;;;0.10;0.10;;;;;;;;;;5049835;28;20037;-52
2021/01/21 18:29:28;;;;;;;0.10;0.10;;;;;;;;;;5049733;28;20108;-56
2021/01/21 18:31:54;;;;;;;0.10;0.10;;;;;;;;;;5045549;28;20032;-55
2021/01/21 18:34:21;;;;;;;0.10;0.10;;;;;;;;;;5045841;28;20017;-56
2021/01/21 18:36:47;;;;;;;0.10;0.10;;;;;;;;;;5046062;28;20055;-57
2021/01/21 18:39:13;;;;;;;0.10;0.10;;;;;;;;;;5048060;28;20024;-54
2021/01/21 18:41:39;;;;;;;0.10;0.10;;;;;;;;;;5049327;28;20025;-53
2021/01/21 18:44:05;;;;;;;0.10;0.10;;;;;;;;;;5047719;28;20063;-52
2021/01/21 18:46:31;;;;;;;0.35;0.35;;;;;;;;;;5045586;28;20387;-54
2021/01/21 18:48:59;;;;;;;0.17;0.17;;;;;;;;;;5048594;28;20048;-54
2021/01/21 18:51:25;;;;;;;0.20;0.20;;;;;;;;;;5048690;28;20033;-52
2021/01/21 18:53:51;;;;;;;0.55;0.55;;;;;;;;;;5050294;28;20116;-57
2021/01/21 18:56:17;;;;;;;0.20;0.20;;;;;;;;;;5045100;28;20036;-55
2021/01/21 18:58:43;;;;;;;4.60;4.20;;;;;;;;;;5048129;28;20479;-52
2021/01/21 19:01:10;;;;;;;0.10;0.10;;;;;;;;;;5050196;28;20090;-57
2021/01/21 19:03:36;;;;;;;0.10;0.10;;;;;;;;;;5051496;28;20494;-55
2021/01/21 19:06:02;;;;;;;0.10;0.10;;;;;;;;;;5052054;28;20029;-54
2021/01/21 19:08:28;;;;;;;0.10;0.10;;;;;;;;;;5051664;28;20033;-55
2021/01/21 19:10:54;;;;;;;0.10;0.10;;;;;;;;;;5050009;28;20087;-55
2021/01/21 19:13:20;;;;;;;0.10;0.10;;;;;;;;;;5051876;28;20151;-54
2021/01/21 19:15:47;;;;;;;0.10;0.10;;;;;;;;;;5051029;28;20025;-55
2021/01/21 19:18:13;;;;;;;0.10;0.10;;;;;;;;;;5051577;28;20021;-55
2021/01/21 19:20:40;;;;;;;2.70;2.60;;;;;;;;;;5052369;28;20029;-55
2021/01/21 19:23:06;;;;;;;0.75;0.75;;;;;;;;;;5051787;28;20024;-51
2021/01/21 19:25:32;;;;;;;0.10;0.10;;;;;;;;;;5049704;28;20035;-55
2021/01/21 19:27:58;;;;;;;3.95;3.72;;;;;;;;;;5050527;28;20028;-57
2021/01/21 19:30:25;;;;;;;1.67;1.65;;;;;;;;;;5049952;28;20041;-56
2021/01/21 19:32:51;;;;;;;0.50;0.50;;;;;;;;;;5051782;28;20025;-55
2021/01/21 19:35:18;;;;;;;0.10;0.10;;;;;;;;;;5060895;28;20048;-56
2021/01/21 19:37:44;;;;;;;0.10;0.10;;;;;;;;;;5052608;28;20032;-55
2021/01/21 19:40:10;;;;;;;0.10;0.10;;;;;;;;;;5049329;28;20074;-54
2021/01/21 19:42:36;;;;;;;0.10;0.10;;;;;;;;;;5058158;28;20067;-52
2021/01/21 19:45:03;;;;;;;0.10;0.10;;;;;;;;;;5050647;28;20029;-52
2021/01/21 19:47:34;;;;;;;0.55;0.55;;;;;;;;;;5057626;28;20025;-55
2021/01/21 19:50:00;;;;;;;2.05;0.57;;;;;;;;;;5057067;28;20047;-52
2021/01/21 19:52:26;;;;;;;0.10;0.10;;;;;;;;;;5057936;28;20134;-56
2021/01/21 19:54:52;;;;;;;0.10;0.10;;;;;;;;;;5057449;28;20035;-52
2021/01/21 19:57:19;;;;;;;0.40;0.40;;;;;;;;;;5058291;28;20025;-52
2021/01/21 19:59:45;;;;;;;0.13;0.13;;;;;;;;;;5057947;28;20485;-51
2021/01/21 20:02:11;;;;;;;0.40;0.40;;;;;;;;;;5057651;28;20494;-54
2021/01/21 20:04:37;;;;;;;0.10;0.10;;;;;;;;;;5052200;28;20021;-53
2021/01/21 20:07:03;;;;;;;0.57;0.57;;;;;;;;;;5053019;28;20052;-54
2021/01/21 20:09:29;;;;;;;4.35;4.15;;;;;;;;;;5060128;28;20049;-56
2021/01/21 20:11:55;;;;;;;0.28;0.28;;;;;;;;;;5049723;28;20037;-55
2021/01/21 20:14:21;;;;;;;0.13;0.13;;;;;;;;;;5045731;28;20028;-56
2021/01/21 20:16:48;;;;;;;0.10;0.10;;;;;;;;;;5048890;28;20116;-56
2021/01/21 20:19:14;;;;;;;0.10;0.10;;;;;;;;;;5049074;28;20111;-55
2021/01/21 20:21:41;;;;;;;0.10;0.10;;;;;;;;;;5046437;28;20020;-54
2021/01/21 20:24:07;;;;;;;0.10;0.10;;;;;;;;;;5048040;28;20033;-55
2021/01/21 20:26:33;;;;;;;0.10;0.10;;;;;;;;;;5050047;28;20029;-56
2021/01/21 20:29:00;;;;;;;0.20;0.20;;;;;;;;;;5048796;28;20033;-55
2021/01/21 20:31:26;;;;;;;0.22;0.22;;;;;;;;;;5044603;28;20340;-55
2021/01/21 20:33:52;;;;;;;0.30;0.30;;;;;;;;;;5044985;28;20025;-56
2021/01/21 20:36:18;;;;;;;0.10;0.10;;;;;;;;;;5046439;28;20107;-55
2021/01/21 20:38:44;;;;;;;0.20;0.20;;;;;;;;;;5045098;28;20499;-53
2021/01/21 20:41:10;;;;;;;0.15;0.15;;;;;;;;;;5044678;28;20049;-55
2021/01/21 20:43:36;;;;;;;0.20;0.20;;;;;;;;;;5044131;28;20043;-56